Time;durP1;ratioP1;P1;durP2;ratioP2;P2;SDS_P1;SDS_P2;PMS_P1;PMS_P2;Temp;Humidity;BMP_temperature;BMP_pressure;BME280_temperature;BME280_humidity;BME280_pressure;Samples;Min_cycle;Max_cycle;Signal;HPM_P1;HPM_P2
2021/04/03 00:00:38;;;;;;;8.10;5.07;;;6.50;99.90;;;;;;5081669;28;20411;-71
2021/04/03 00:03:06;;;;;;;10.10;5.00;;;6.50;99.90;;;;;;5079265;28;20210;-70
2021/04/03 00:05:32;;;;;;;8.57;5.57;;;6.50;99.90;;;;;;5079678;28;20520;-70
2021/04/03 00:07:58;;;;;;;9.07;5.73;;;6.50;99.90;;;;;;5081553;28;20427;-72
2021/04/03 00:10:27;;;;;;;8.17;5.10;;;6.40;99.90;;;;;;5078370;28;20431;-71
2021/04/03 00:12:54;;;;;;;7.53;5.70;;;6.50;99.90;;;;;;5081878;28;20450;-71
2021/04/03 00:15:20;;;;;;;10.97;7.67;;;6.50;99.90;;;;;;5079152;28;20821;-74
2021/04/03 00:17:46;;;;;;;8.63;5.60;;;6.50;99.90;;;;;;5082829;28;20461;-71
2021/04/03 00:20:14;;;;;;;8.20;5.67;;;6.40;99.90;;;;;;5079463;28;20200;-71
2021/04/03 00:22:41;;;;;;;10.73;5.53;;;6.30;99.90;;;;;;5081892;28;20708;-71
2021/04/03 00:25:07;;;;;;;9.77;6.03;;;6.30;99.90;;;;;;5078898;28;20941;-72
2021/04/03 00:27:33;;;;;;;9.73;5.90;;;6.30;99.90;;;;;;5081020;28;20962;-71
2021/04/03 00:29:58;;;;;;;11.90;6.13;;;6.30;99.90;;;;;;5081463;28;20424;-71
2021/04/03 00:32:24;;;;;;;10.13;6.10;;;6.30;99.90;;;;;;5079363;28;20209;-71
2021/04/03 00:34:49;;;;;;;9.27;6.20;;;6.30;99.90;;;;;;5082384;28;20230;-71
2021/04/03 00:37:15;;;;;;;7.80;6.17;;;6.30;99.90;;;;;;5078954;28;20191;-71
2021/04/03 00:39:42;;;;;;;14.10;6.87;;;6.20;99.90;;;;;;5078904;28;20216;-71
2021/04/03 00:42:17;;;;;;;6.93;5.50;;;6.20;99.90;;;;;;5081286;28;20271;-72
2021/04/03 00:44:47;;;;;;;10.87;6.47;;;6.20;99.90;;;;;;5082654;28;20954;-71
2021/04/03 00:47:14;;;;;;;11.23;5.83;;;6.20;99.90;;;;;;5079042;28;20422;-71
2021/04/03 00:49:46;;;;;;;9.07;5.43;;;6.20;99.90;;;;;;5081635;28;20431;-73
2021/04/03 00:52:13;;;;;;;5.87;5.27;;;6.20;99.90;;;;;;5078895;28;20427;-71
2021/04/03 00:54:43;;;;;;;17.50;6.03;;;6.10;99.90;;;;;;5081518;28;20446;-72
2021/04/03 00:57:08;;;;;;;17.53;5.87;;;6.10;99.90;;;;;;5080117;28;20930;-71
2021/04/03 00:59:35;;;;;;;9.50;5.17;;;6.10;99.90;;;;;;5081179;28;20517;-71
2021/04/03 01:02:00;;;;;;;9.73;5.50;;;6.10;99.90;;;;;;5080933;28;20558;-72
2021/04/03 01:04:26;;;;;;;9.20;6.00;;;6.10;99.90;;;;;;5081431;28;20604;-72
2021/04/03 01:06:52;;;;;;;17.17;5.90;;;6.10;99.90;;;;;;5086544;28;20186;-71
2021/04/03 01:09:17;;;;;;;8.57;5.30;;;6.10;99.90;;;;;;5082984;28;20182;-73
2021/04/03 01:11:58;;;;;;;6.13;5.33;;;6.10;99.90;;;;;;5085992;28;20200;-71
2021/04/03 01:14:40;;;;;;;8.17;5.93;;;6.10;99.90;;;;;;5082601;28;20629;-73
2021/04/03 01:17:28;;;;;;;8.93;5.53;;;6.10;99.90;;;;;;5083631;28;20434;-70
2021/04/03 01:20:04;;;;;;;11.43;5.23;;;6.00;99.90;;;;;;5082762;28;20463;-71
2021/04/03 01:22:54;;;;;;;8.60;5.40;;;6.00;99.90;;;;;;5084108;28;20425;-71
2021/04/03 01:25:56;;;;;;;8.07;4.67;;;6.00;99.90;;;;;;5082146;28;20443;-71
2021/04/03 01:28:52;;;;;;;10.00;5.60;;;6.00;99.90;;;;;;5082204;28;20498;-71
2021/04/03 01:31:18;;;;;;;11.80;5.57;;;6.00;99.90;;;;;;5082111;28;20422;-71
2021/04/03 01:33:47;;;;;;;9.57;5.30;;;6.00;99.90;;;;;;5085171;28;20452;-70
2021/04/03 01:36:16;;;;;;;8.20;5.10;;;6.00;99.90;;;;;;5082316;28;20421;-71
2021/04/03 01:38:53;;;;;;;13.53;5.37;;;5.90;99.90;;;;;;5084890;28;20827;-71
2021/04/03 01:41:23;;;;;;;12.33;5.57;;;5.90;99.90;;;;;;5081989;28;20939;-71
2021/04/03 01:43:51;;;;;;;9.90;5.50;;;5.90;99.90;;;;;;5097321;28;21030;-71
2021/04/03 01:46:20;;;;;;;11.47;5.80;;;5.80;99.90;;;;;;5081901;28;20422;-71
2021/04/03 01:48:45;;;;;;;13.07;6.00;;;5.80;99.90;;;;;;5081805;28;20458;-71
2021/04/03 01:51:13;;;;;;;12.07;6.30;;;5.70;99.90;;;;;;5084386;28;20512;-71
2021/04/03 01:53:39;;;;;;;8.30;5.20;;;5.70;99.90;;;;;;5082471;28;20263;-72
2021/04/03 01:56:07;;;;;;;15.87;6.00;;;5.60;99.90;;;;;;5083697;28;20434;-72
2021/04/03 01:58:34;;;;;;;11.73;6.20;;;5.50;99.90;;;;;;5083412;28;20517;-72
2021/04/03 02:01:00;;;;;;;12.10;6.40;;;5.50;99.90;;;;;;5082827;28;20419;-72
2021/04/03 02:03:26;;;;;;;9.77;5.70;;;5.50;99.90;;;;;;5084181;28;20813;-70
2021/04/03 02:05:53;;;;;;;9.27;4.37;;;5.40;99.90;;;;;;5081549;28;20426;-72
2021/04/03 02:08:19;;;;;;;8.70;5.90;;;5.40;99.90;;;;;;5084661;28;20176;-71
2021/04/03 02:10:45;;;;;;;9.40;6.10;;;5.40;99.90;;;;;;5081561;28;20437;-70
2021/04/03 02:13:14;;;;;;;8.33;5.67;;;5.50;99.90;;;;;;5083680;28;21933;-73
2021/04/03 02:15:41;;;;;;;10.83;6.47;;;5.50;99.90;;;;;;5080689;28;20425;-71
2021/04/03 02:18:08;;;;;;;10.90;6.23;;;5.50;99.90;;;;;;5085240;28;20516;-72
2021/04/03 02:20:35;;;;;;;13.30;5.63;;;5.50;99.90;;;;;;5082986;28;20462;-73
2021/04/03 02:23:01;;;;;;;8.10;5.70;;;5.50;99.90;;;;;;5082857;28;20506;-71
2021/04/03 02:25:27;;;;;;;9.63;5.17;;;5.40;99.90;;;;;;5081732;28;20415;-70
2021/04/03 02:27:53;;;;;;;12.37;6.40;;;5.50;99.90;;;;;;5084363;28;20969;-71
2021/04/03 02:30:22;;;;;;;10.60;5.47;;;5.50;99.90;;;;;;5080800;28;20430;-71
2021/04/03 02:32:54;;;;;;;12.83;5.30;;;5.50;99.90;;;;;;5084400;28;20588;-71
2021/04/03 02:35:21;;;;;;;9.80;5.23;;;5.50;99.90;;;;;;5080539;28;20805;-71
2021/04/03 02:37:51;;;;;;;11.80;5.17;;;5.40;99.90;;;;;;5084670;28;20411;-73
2021/04/03 02:40:18;;;;;;;6.27;4.40;;;5.50;99.90;;;;;;5080686;28;20470;-70
2021/04/03 02:43:11;;;;;;;14.30;6.17;;;5.40;99.90;;;;;;5082510;28;20409;-71
2021/04/03 02:45:41;;;;;;;13.03;5.60;;;5.40;99.90;;;;;;5082797;28;20418;-74
2021/04/03 02:48:16;;;;;;;23.33;5.20;;;5.40;99.90;;;;;;5081865;28;20828;-72
2021/04/03 02:50:43;;;;;;;12.90;5.60;;;5.40;99.90;;;;;;5083595;28;20534;-72
2021/04/03 02:53:11;;;;;;;6.50;5.90;;;5.40;99.90;;;;;;5081167;28;20461;-72
2021/04/03 02:55:40;;;;;;;11.37;5.10;;;5.30;99.90;;;;;;5082423;28;20490;-72
2021/04/03 02:58:07;;;;;;;4.83;4.33;;;5.30;99.90;;;;;;5081819;28;20426;-72
2021/04/03 03:00:33;;;;;;;11.73;5.00;;;5.20;99.90;;;;;;5081863;28;20472;-72
2021/04/03 03:03:00;;;;;;;5.80;4.17;;;5.20;99.90;;;;;;5082499;28;20469;-71
2021/04/03 03:05:26;;;;;;;7.23;4.50;;;5.20;99.90;;;;;;5080782;28;20179;-71
2021/04/03 03:07:54;;;;;;;8.13;5.27;;;5.10;99.90;;;;;;5082482;28;20452;-72
2021/04/03 03:10:21;;;;;;;8.53;4.50;;;5.00;99.90;;;;;;5080049;28;20423;-72
2021/04/03 03:12:48;;;;;;;11.77;4.30;;;4.90;99.90;;;;;;5083369;28;20450;-72
2021/04/03 03:15:16;;;;;;;7.37;4.10;;;4.80;99.90;;;;;;5079998;28;20422;-71
2021/04/03 03:17:46;;;;;;;6.27;4.00;;;4.80;99.90;;;;;;5081851;28;20832;-72
2021/04/03 03:20:13;;;;;;;8.43;4.43;;;4.70;99.90;;;;;;5080410;28;20473;-72
2021/04/03 03:22:40;;;;;;;6.40;5.10;;;4.70;99.90;;;;;;5080704;28;20434;-72
2021/04/03 03:25:08;;;;;;;5.83;5.10;;;4.70;99.90;;;;;;5081246;28;20520;-72
2021/04/03 03:27:39;;;;;;;9.87;4.60;;;4.60;99.90;;;;;;5079581;28;20426;-75
2021/04/03 03:30:07;;;;;;;12.37;5.07;;;4.60;99.90;;;;;;5081326;28;20410;-72
2021/04/03 03:32:32;;;;;;;5.67;4.60;;;4.60;99.90;;;;;;5079527;28;20441;-71
2021/04/03 03:34:58;;;;;;;8.60;4.70;;;4.50;99.90;;;;;;5082304;28;20412;-74
2021/04/03 03:37:25;;;;;;;9.77;4.50;;;4.40;99.90;;;;;;5079819;28;20180;-72
2021/04/03 03:39:52;;;;;;;4.23;3.83;;;4.40;99.90;;;;;;5083154;28;20285;-72
2021/04/03 03:42:18;;;;;;;10.30;4.50;;;4.40;99.90;;;;;;5079304;28;20977;-71
2021/04/03 03:44:44;;;;;;;9.10;4.77;;;4.40;99.90;;;;;;5082526;28;20473;-72
2021/04/03 03:47:10;;;;;;;9.33;4.50;;;4.40;99.90;;;;;;5080268;28;20418;-72
2021/04/03 03:49:35;;;;;;;12.73;5.00;;;4.40;99.90;;;;;;5081389;28;20424;-71
2021/04/03 03:52:01;;;;;;;5.90;4.27;;;4.30;99.90;;;;;;5081486;28;20175;-73
2021/04/03 03:54:27;;;;;;;5.47;4.80;;;4.20;99.90;;;;;;5079935;28;20207;-72
2021/04/03 03:56:52;;;;;;;7.83;4.50;;;4.10;99.90;;;;;;5082934;28;20681;-72
2021/04/03 03:59:18;;;;;;;12.60;5.37;;;4.10;99.90;;;;;;5078171;28;20211;-72
2021/04/03 04:01:44;;;;;;;5.33;4.70;;;4.00;99.90;;;;;;5082411;28;20178;-74
2021/04/03 04:04:09;;;;;;;11.50;4.30;;;3.90;99.90;;;;;;5079817;28;20203;-74
2021/04/03 04:06:35;;;;;;;8.80;4.60;;;3.90;99.90;;;;;;5081216;28;20405;-72
2021/04/03 04:09:03;;;;;;;12.30;5.47;;;3.80;99.90;;;;;;5081420;28;20261;-72
2021/04/03 04:11:28;;;;;;;6.57;4.17;;;3.80;99.90;;;;;;5078867;28;20186;-72
2021/04/03 04:13:54;;;;;;;8.30;5.17;;;3.80;99.90;;;;;;5082119;28;20431;-74
2021/04/03 04:16:20;;;;;;;9.93;4.70;;;3.80;99.90;;;;;;5079083;28;20190;-72
2021/04/03 04:18:45;;;;;;;8.03;4.20;;;3.80;99.90;;;;;;5082444;28;20204;-72
2021/04/03 04:21:11;;;;;;;11.10;5.00;;;3.80;99.90;;;;;;5079826;28;20193;-73
2021/04/03 04:23:36;;;;;;;9.83;4.90;;;3.90;99.90;;;;;;5080641;28;20202;-72
2021/04/03 04:26:02;;;;;;;8.60;4.47;;;3.90;99.90;;;;;;5081203;28;20181;-73
2021/04/03 04:28:28;;;;;;;8.03;4.83;;;3.90;99.90;;;;;;5079640;28;20206;-72
2021/04/03 04:30:53;;;;;;;8.70;5.33;;;4.00;99.90;;;;;;5081101;28;20722;-74
2021/04/03 04:33:19;;;;;;;6.73;4.33;;;4.00;99.90;;;;;;5078636;28;20523;-72
2021/04/03 04:35:44;;;;;;;9.93;5.40;;;4.00;99.90;;;;;;5082380;28;20652;-73
2021/04/03 04:38:10;;;;;;;10.10;4.70;;;4.00;99.90;;;;;;5079900;28;20175;-72
2021/04/03 04:40:35;;;;;;;9.60;4.80;;;4.10;99.90;;;;;;5084968;28;20207;-72
2021/04/03 04:43:01;;;;;;;9.20;5.23;;;4.10;99.90;;;;;;5083807;28;20195;-72
2021/04/03 04:45:27;;;;;;;5.70;4.70;;;4.20;99.90;;;;;;5083599;28;20266;-72
2021/04/03 04:47:52;;;;;;;14.73;5.33;;;4.20;99.90;;;;;;5086386;28;20169;-73
2021/04/03 04:50:18;;;;;;;8.73;4.83;;;4.20;99.90;;;;;;5082735;28;20178;-72
2021/04/03 04:52:43;;;;;;;9.00;5.07;;;4.20;99.90;;;;;;5085568;28;20211;-72
2021/04/03 04:55:10;;;;;;;8.23;5.30;;;4.30;99.90;;;;;;5083701;28;20262;-72
2021/04/03 04:57:35;;;;;;;4.93;3.97;;;4.30;99.90;;;;;;5084802;28;20190;-72
2021/04/03 05:00:01;;;;;;;9.63;5.13;;;4.30;99.90;;;;;;5083520;28;20457;-75
2021/04/03 05:02:27;;;;;;;12.73;5.30;;;4.30;99.90;;;;;;5083088;28;20179;-75
2021/04/03 05:04:52;;;;;;;8.33;4.70;;;4.30;99.90;;;;;;5085858;28;20582;-72
2021/04/03 05:07:18;;;;;;;6.63;4.53;;;4.30;99.90;;;;;;5082493;28;20200;-73
2021/04/03 05:09:43;;;;;;;7.80;4.53;;;4.40;99.90;;;;;;5085402;28;20180;-73
2021/04/03 05:12:09;;;;;;;6.73;4.10;;;4.40;99.90;;;;;;5083289;28;20262;-71
2021/04/03 05:14:35;;;;;;;7.50;4.20;;;4.40;99.90;;;;;;5084406;28;20212;-72
2021/04/03 05:17:01;;;;;;;9.63;5.83;;;4.40;99.90;;;;;;5083309;28;20203;-75
2021/04/03 05:19:26;;;;;;;10.17;5.57;;;4.50;99.90;;;;;;5082862;28;20202;-73
2021/04/03 05:21:52;;;;;;;7.40;3.50;;;4.50;99.90;;;;;;5085867;28;20212;-73
2021/04/03 05:24:18;;;;;;;7.83;5.00;;;4.50;99.90;;;;;;5081959;28;20675;-72
2021/04/03 05:26:44;;;;;;;7.10;4.80;;;4.60;99.90;;;;;;5085199;28;20455;-71
2021/04/03 05:29:09;;;;;;;6.73;4.47;;;4.60;99.90;;;;;;5083028;28;20184;-72
2021/04/03 05:31:35;;;;;;;14.83;5.10;;;4.60;99.90;;;;;;5083747;28;20180;-75
2021/04/03 05:34:01;;;;;;;10.00;4.93;;;4.70;99.90;;;;;;5084139;28;20194;-72
2021/04/03 05:36:26;;;;;;;9.73;5.30;;;4.70;99.90;;;;;;5082403;28;20230;-72
2021/04/03 05:38:52;;;;;;;8.20;4.63;;;4.80;99.90;;;;;;5085389;28;20466;-73
2021/04/03 05:41:17;;;;;;;8.03;4.30;;;4.80;99.90;;;;;;5081747;28;20236;-73
2021/04/03 05:43:46;;;;;;;11.07;4.30;;;4.80;99.90;;;;;;5084555;28;20233;-72
2021/04/03 05:46:14;;;;;;;8.33;4.97;;;4.90;99.90;;;;;;5085096;28;20175;-72
2021/04/03 05:48:40;;;;;;;7.20;4.53;;;5.00;99.90;;;;;;5082921;28;20410;-72
2021/04/03 05:51:06;;;;;;;8.90;6.67;;;5.20;99.90;;;;;;5081395;28;20816;-73
2021/04/03 05:53:32;;;;;;;7.90;4.20;;;5.30;99.90;;;;;;5085460;28;20469;-72
2021/04/03 05:55:58;;;;;;;4.23;3.70;;;5.50;99.90;;;;;;5088370;28;20417;-72
2021/04/03 05:58:25;;;;;;;10.03;4.70;;;5.70;99.90;;;;;;5091032;28;20190;-72
2021/04/03 06:00:54;;;;;;;6.40;4.07;;;5.90;99.90;;;;;;5081458;28;20416;-71
2021/04/03 06:03:20;;;;;;;6.50;3.83;;;6.10;99.90;;;;;;5083650;28;20994;-71
2021/04/03 06:05:50;;;;;;;10.40;4.77;;;6.30;99.90;;;;;;5081429;28;20415;-71
2021/04/03 06:08:16;;;;;;;5.50;4.40;;;6.50;99.90;;;;;;5084489;28;20427;-71
2021/04/03 06:10:42;;;;;;;8.30;3.87;;;7.10;99.90;;;;;;5082194;28;20438;-71
2021/04/03 06:13:19;;;;;;;5.10;3.47;;;8.40;99.90;;;;;;5082913;28;20692;-71
2021/04/03 06:15:45;;;;;;;8.10;4.50;;;10.10;99.90;;;;;;5081481;28;20184;-71
2021/04/03 06:18:13;;;;;;;10.53;3.50;;;11.70;99.90;;;;;;5083603;28;20949;-69
2021/04/03 06:20:40;;;;;;;3.30;3.00;;;12.90;99.90;;;;;;5082191;28;20195;-69
2021/04/03 06:23:08;;;;;;;12.17;4.00;;;13.90;99.90;;;;;;5081036;28;20530;-69
2021/04/03 06:25:55;;;;;;;9.43;3.40;;;14.90;99.90;;;;;;5081679;28;20419;-69
2021/04/03 06:28:32;;;;;;;6.73;2.93;;;15.60;99.90;;;;;;5084345;28;20445;-69
2021/04/03 06:31:14;;;;;;;4.83;2.80;;;16.30;99.70;;;;;;5081873;28;21155;-69
2021/04/03 06:33:40;;;;;;;7.90;3.13;;;15.80;96.80;;;;;;5081771;28;20444;-70
2021/04/03 06:36:08;;;;;;;4.67;3.43;;;15.90;97.90;;;;;;5082617;28;20419;-69
2021/04/03 06:38:35;;;;;;;2.60;2.40;;;16.90;96.40;;;;;;5082467;28;20207;-69
2021/04/03 06:41:24;;;;;;;7.17;2.70;;;16.90;95.60;;;;;;5079017;28;20438;-70
2021/04/03 06:44:09;;;;;;;5.37;3.23;;;17.00;95.50;;;;;;5087627;28;20430;-69
2021/04/03 06:46:36;;;;;;;8.43;3.10;;;17.40;94.50;;;;;;5094803;28;20989;-69
2021/04/03 06:49:03;;;;;;;8.13;2.70;;;17.30;93.70;;;;;;5081793;28;20439;-69
2021/04/03 06:51:30;;;;;;;5.97;2.90;;;16.90;94.00;;;;;;5082977;28;20414;-71
2021/04/03 06:53:58;;;;;;;8.40;4.07;;;16.50;93.60;;;;;;5080810;28;20427;-70
2021/04/03 06:56:27;;;;;;;6.93;3.60;;;15.40;94.80;;;;;;5082534;28;20416;-71
2021/04/03 06:58:58;;;;;;;5.93;3.30;;;14.50;95.70;;;;;;5097489;28;20485;-71
2021/04/03 07:01:44;;;;;;;5.03;3.53;;;14.40;96.20;;;;;;5095712;28;20422;-70
2021/04/03 07:04:14;;;;;;;7.63;2.97;;;14.10;96.20;;;;;;5082340;28;20453;-72
2021/04/03 07:06:42;;;;;;;5.00;3.30;;;13.90;96.90;;;;;;5081273;28;20413;-72
2021/04/03 07:09:09;;;;;;;5.80;3.20;;;13.30;96.70;;;;;;5081324;28;20426;-71
2021/04/03 07:11:36;;;;;;;5.40;3.07;;;13.30;97.10;;;;;;5085428;28;20484;-72
2021/04/03 07:14:02;;;;;;;3.10;2.90;;;12.90;97.40;;;;;;5093402;28;20961;-72
2021/04/03 07:16:29;;;;;;;7.20;3.30;;;12.50;98.00;;;;;;5085567;28;20438;-72
2021/04/03 07:18:56;;;;;;;7.67;3.77;;;12.30;98.00;;;;;;5093116;28;20511;-71
2021/04/03 07:21:22;;;;;;;3.20;2.70;;;12.20;99.10;;;;;;5081873;28;20475;-71
2021/04/03 07:23:52;;;;;;;3.63;2.70;;;11.20;98.90;;;;;;5079511;28;20442;-70
2021/04/03 07:26:18;;;;;;;3.20;2.60;;;10.70;99.40;;;;;;5079562;28;20418;-70
2021/04/03 07:28:44;;;;;;;3.20;2.70;;;10.60;99.50;;;;;;5082775;28;20428;-72
2021/04/03 07:31:10;;;;;;;4.47;2.57;;;10.10;99.90;;;;;;5080512;28;20418;-71
2021/04/03 07:33:49;;;;;;;6.77;2.63;;;9.80;99.90;;;;;;5081676;28;20458;-71
2021/04/03 07:36:34;;;;;;;5.70;2.77;;;9.40;99.90;;;;;;5069700;28;20476;-69
2021/04/03 07:39:01;;;;;;;7.33;3.07;;;9.20;99.90;;;;;;5071865;28;20462;-70
2021/04/03 07:41:35;;;;;;;7.23;2.70;;;9.40;99.90;;;;;;5088578;28;20838;-71
2021/04/03 07:44:14;;;;;;;8.20;3.97;;;9.60;99.90;;;;;;5093378;28;20431;-71
2021/04/03 07:46:50;;;;;;;7.30;2.87;;;9.30;99.90;;;;;;5091479;28;20790;-70
2021/04/03 07:49:33;;;;;;;2.87;1.97;;;9.20;99.90;;;;;;5089513;28;20420;-70
2021/04/03 07:51:59;;;;;;;4.40;1.80;;;9.30;99.90;;;;;;5080123;28;20423;-70
2021/04/03 07:54:30;;;;;;;6.13;3.60;;;9.60;99.90;;;;;;5081917;28;20475;-72
2021/04/03 07:56:58;;;;;;;3.83;2.47;;;9.60;99.90;;;;;;5079748;28;20417;-70
2021/04/03 07:59:42;;;;;;;3.47;2.17;;;9.40;99.90;;;;;;5082494;28;20453;-71
2021/04/03 08:02:12;;;;;;;7.40;2.90;;;9.30;99.90;;;;;;5091494;28;20471;-69
2021/04/03 08:04:38;;;;;;;4.57;2.40;;;9.20;99.90;;;;;;5095765;28;20782;-70
2021/04/03 08:07:04;;;;;;;5.00;2.80;;;9.20;99.90;;;;;;5085170;28;20437;-71
2021/04/03 08:09:33;;;;;;;3.27;3.03;;;9.30;99.90;;;;;;5086548;28;20194;-70
2021/04/03 08:11:59;;;;;;;2.53;2.33;;;9.80;99.90;;;;;;5078760;28;20429;-70
2021/04/03 08:14:27;;;;;;;3.63;2.23;;;10.30;99.90;;;;;;5082295;28;20974;-71
2021/04/03 08:16:54;;;;;;;5.50;2.60;;;11.20;99.90;;;;;;5087708;28;20279;-70
2021/04/03 08:19:27;;;;;;;3.70;2.57;;;12.10;99.90;;;;;;5079157;28;21009;-71
2021/04/03 08:21:53;;;;;;;5.03;2.20;;;12.30;99.90;;;;;;5082342;28;20429;-71
2021/04/03 08:24:20;;;;;;;3.07;1.97;;;12.50;99.30;;;;;;5093458;28;20908;-72
2021/04/03 08:26:47;;;;;;;2.57;2.37;;;12.60;99.40;;;;;;5094505;28;20437;-71
2021/04/03 08:29:31;;;;;;;3.93;2.00;;;12.40;98.80;;;;;;5091295;28;20435;-70
2021/04/03 08:31:58;;;;;;;5.63;2.83;;;12.00;98.80;;;;;;5078626;28;20418;-70
2021/04/03 08:34:24;;;;;;;4.30;2.50;;;11.70;99.10;;;;;;5080982;28;20447;-71
2021/04/03 08:36:51;;;;;;;8.20;2.40;;;11.80;99.20;;;;;;5086235;28;20434;-72
2021/04/03 08:39:18;;;;;;;4.33;2.00;;;12.00;98.70;;;;;;5088872;28;20466;-70
2021/04/03 08:41:46;;;;;;;3.17;2.33;;;12.00;99.00;;;;;;5081563;28;20432;-71
2021/04/03 08:44:17;;;;;;;7.80;2.60;;;12.20;98.70;;;;;;5091993;28;21021;-71
2021/04/03 08:46:44;;;;;;;3.80;2.27;;;12.50;98.70;;;;;;5086062;28;20430;-71
2021/04/03 08:49:10;;;;;;;4.23;2.43;;;12.60;98.40;;;;;;5081176;28;20415;-70
2021/04/03 08:51:36;;;;;;;7.87;1.90;;;12.70;98.10;;;;;;5080298;28;20438;-69
2021/04/03 08:54:03;;;;;;;8.00;2.00;;;12.90;97.80;;;;;;5097449;28;20841;-70
2021/04/03 08:56:36;;;;;;;3.37;1.90;;;13.40;97.30;;;;;;5082327;28;20184;-70
2021/04/03 08:59:06;;;;;;;4.10;1.87;;;13.60;96.90;;;;;;5093371;28;20492;-69
2021/04/03 09:01:36;;;;;;;6.43;3.47;;;13.10;96.10;;;;;;5094930;28;20426;-69
2021/04/03 09:04:07;;;;;;;2.73;1.80;;;12.40;96.40;;;;;;5082917;28;20462;-70
2021/04/03 09:06:59;;;;;;;3.10;2.50;;;11.90;97.20;;;;;;5087571;28;20429;-69
2021/04/03 09:09:29;;;;;;;3.30;1.87;;;11.40;97.80;;;;;;5090422;28;20864;-69
2021/04/03 09:11:57;;;;;;;3.47;1.83;;;11.40;98.10;;;;;;5078691;28;20491;-68
2021/04/03 09:14:36;;;;;;;2.70;2.10;;;12.30;98.20;;;;;;5081808;28;20429;-69
2021/04/03 09:17:24;;;;;;;2.40;2.17;;;12.40;97.50;;;;;;5079986;28;20965;-69
2021/04/03 09:19:51;;;;;;;5.33;2.30;;;12.00;97.20;;;;;;5092874;28;20519;-69
2021/04/03 09:22:20;;;;;;;4.60;1.80;;;11.50;97.80;;;;;;5094793;28;20452;-70
2021/04/03 09:24:56;;;;;;;6.70;2.80;;;11.10;98.30;;;;;;5079102;28;20532;-69
2021/04/03 09:27:22;;;;;;;3.27;2.10;;;11.70;98.10;;;;;;5082282;28;20431;-69
2021/04/03 09:30:05;;;;;;;3.60;1.87;;;11.60;97.50;;;;;;5092798;28;20430;-70
2021/04/03 09:32:46;;;;;;;4.33;2.10;;;12.20;96.60;;;;;;5089701;28;20414;-69
2021/04/03 09:35:22;;;;;;;5.60;2.50;;;13.00;97.10;;;;;;5084707;28;20973;-69
2021/04/03 09:38:02;;;;;;;3.70;2.63;;;13.90;95.20;;;;;;5082209;28;20418;-69
2021/04/03 09:40:53;;;;;;;5.20;2.00;;;14.30;94.90;;;;;;5082664;28;20503;-70
2021/04/03 09:43:19;;;;;;;4.63;2.70;;;14.70;95.40;;;;;;5077974;28;20454;-70
2021/04/03 09:45:44;;;;;;;5.60;2.60;;;15.30;93.90;;;;;;5084922;28;20413;-69
2021/04/03 09:48:11;;;;;;;4.93;2.10;;;15.40;93.60;;;;;;5093818;28;20258;-70
2021/04/03 09:50:38;;;;;;;3.50;2.23;;;15.70;93.60;;;;;;5090755;28;20231;-69
2021/04/03 09:53:11;;;;;;;8.03;2.27;;;16.00;93.40;;;;;;5095989;28;20441;-69
2021/04/03 09:55:37;;;;;;;3.97;2.00;;;16.50;93.30;;;;;;5092996;28;20772;-70
2021/04/03 09:58:03;;;;;;;7.60;2.80;;;16.70;91.90;;;;;;5099183;28;20438;-69
2021/04/03 10:00:29;;;;;;;5.13;2.83;;;16.10;92.10;;;;;;5083927;28;20238;-69
2021/04/03 10:02:56;;;;;;;4.57;2.43;;;16.00;92.90;;;;;;5081206;28;20192;-69
2021/04/03 10:05:22;;;;;;;7.30;2.80;;;15.70;92.90;;;;;;5085026;28;20516;-70
2021/04/03 10:07:47;;;;;;;2.87;2.30;;;15.70;93.30;;;;;;5081255;28;20497;-69
2021/04/03 10:10:13;;;;;;;3.13;2.10;;;15.90;92.70;;;;;;5089874;28;20699;-69
2021/04/03 10:12:38;;;;;;;5.00;2.50;;;15.90;92.20;;;;;;5082042;28;20183;-69
2021/04/03 10:15:05;;;;;;;3.97;2.40;;;15.70;91.30;;;;;;5089971;28;20183;-71
2021/04/03 10:17:30;;;;;;;3.43;2.07;;;16.20;91.00;;;;;;5083390;28;20186;-69
2021/04/03 10:19:56;;;;;;;9.53;2.07;;;16.10;90.70;;;;;;5081523;28;20466;-69
2021/04/03 10:22:21;;;;;;;3.77;2.30;;;15.60;91.00;;;;;;5084544;28;20190;-70
2021/04/03 10:24:47;;;;;;;3.83;2.83;;;15.00;92.10;;;;;;5080886;28;20636;-70
2021/04/03 10:27:13;;;;;;;5.23;2.70;;;14.70;92.00;;;;;;5084301;28;20740;-69
2021/04/03 10:29:38;;;;;;;3.43;2.30;;;14.80;92.30;;;;;;5082053;28;20183;-70
2021/04/03 10:32:04;;;;;;;5.10;2.77;;;14.60;92.10;;;;;;5082276;28;20245;-69
2021/04/03 10:34:30;;;;;;;5.70;2.50;;;13.90;92.50;;;;;;5081758;28;20200;-69
2021/04/03 10:36:55;;;;;;;6.73;2.60;;;13.70;93.00;;;;;;5081061;28;20423;-69
2021/04/03 10:39:21;;;;;;;3.43;2.40;;;12.90;93.20;;;;;;5084265;28;20233;-70
2021/04/03 10:41:46;;;;;;;8.43;3.13;;;12.60;94.00;;;;;;5080732;28;20264;-69
2021/04/03 10:44:12;;;;;;;3.57;2.50;;;12.50;93.50;;;;;;5083018;28;20197;-69
2021/04/03 10:46:37;;;;;;;6.50;2.70;;;12.70;94.30;;;;;;5081835;28;20180;-69
2021/04/03 10:49:03;;;;;;;5.43;2.90;;;13.00;94.00;;;;;;5082040;28;20321;-69
2021/04/03 10:51:29;;;;;;;6.77;2.40;;;13.20;93.40;;;;;;5083067;28;20180;-68
2021/04/03 10:53:54;;;;;;;5.53;2.50;;;12.90;93.40;;;;;;5080386;28;20677;-69
2021/04/03 10:56:20;;;;;;;3.33;2.30;;;12.50;93.40;;;;;;5083815;28;20184;-70
2021/04/03 10:58:45;;;;;;;5.03;2.30;;;12.60;93.90;;;;;;5079062;28;20192;-69
2021/04/03 11:01:12;;;;;;;5.53;2.30;;;13.40;94.80;;;;;;5082817;28;20176;-69
2021/04/03 11:03:37;;;;;;;4.93;2.77;;;13.60;93.90;;;;;;5079838;28;20191;-70
2021/04/03 11:06:03;;;;;;;5.70;2.40;;;13.40;93.00;;;;;;5081564;28;20422;-70
2021/04/03 11:08:29;;;;;;;3.83;2.27;;;13.10;93.50;;;;;;5082815;28;20207;-71
2021/04/03 11:10:55;;;;;;;6.53;2.30;;;12.50;93.10;;;;;;5080502;28;20200;-69
2021/04/03 11:13:20;;;;;;;3.93;2.33;;;12.20;93.20;;;;;;5083295;28;20869;-69
2021/04/03 11:15:47;;;;;;;3.50;2.40;;;12.30;93.00;;;;;;5080022;28;20203;-69
2021/04/03 11:18:13;;;;;;;3.20;2.20;;;12.80;93.20;;;;;;5082896;28;20180;-69
2021/04/03 11:20:38;;;;;;;5.13;2.30;;;12.70;92.00;;;;;;5080886;28;20460;-69
2021/04/03 11:23:04;;;;;;;3.00;2.20;;;12.50;92.10;;;;;;5080865;28;20204;-69
2021/04/03 11:25:30;;;;;;;5.57;2.57;;;12.20;92.30;;;;;;5082351;28;20206;-70
2021/04/03 11:27:55;;;;;;;3.23;2.03;;;12.60;93.50;;;;;;5080680;28;20264;-69
2021/04/03 11:30:21;;;;;;;6.83;2.23;;;13.20;94.00;;;;;;5083282;28;20198;-69
2021/04/03 11:32:49;;;;;;;4.70;2.47;;;13.80;92.60;;;;;;5079324;28;20181;-69
2021/04/03 11:35:18;;;;;;;3.70;3.27;;;13.70;92.10;;;;;;5081625;28;20929;-69
2021/04/03 11:37:45;;;;;;;3.47;2.10;;;13.40;91.90;;;;;;5080082;28;20415;-69
2021/04/03 11:40:12;;;;;;;5.47;2.60;;;13.20;92.20;;;;;;5080879;28;20533;-69
2021/04/03 11:42:37;;;;;;;4.83;2.83;;;13.00;93.20;;;;;;5080445;28;20493;-69
2021/04/03 11:45:06;;;;;;;5.17;2.60;;;12.80;93.00;;;;;;5081055;28;20509;-70
2021/04/03 11:47:31;;;;;;;3.93;2.40;;;12.90;93.70;;;;;;5079720;28;20178;-70
2021/04/03 11:49:57;;;;;;;3.60;2.03;;;12.70;93.50;;;;;;5079519;28;20505;-71
2021/04/03 11:52:24;;;;;;;4.33;2.60;;;12.50;92.70;;;;;;5079170;28;20189;-70
2021/04/03 11:54:50;;;;;;;2.90;2.13;;;12.40;92.90;;;;;;5082792;28;20477;-70
2021/04/03 11:57:16;;;;;;;4.67;2.03;;;12.10;93.10;;;;;;5079533;28;20461;-70
2021/04/03 11:59:41;;;;;;;3.47;2.07;;;12.00;93.50;;;;;;5081706;28;20451;-69
2021/04/03 12:02:07;;;;;;;5.03;1.93;;;11.80;94.00;;;;;;5080549;28;20172;-69
2021/04/03 12:04:32;;;;;;;4.37;1.93;;;11.80;94.00;;;;;;5080538;28;20189;-69
2021/04/03 12:06:58;;;;;;;9.87;2.87;;;11.70;93.40;;;;;;5081929;28;20645;-69
2021/04/03 12:09:24;;;;;;;1.70;1.60;;;11.60;93.60;;;;;;5079453;28;20683;-69
2021/04/03 12:11:49;;;;;;;3.00;2.10;;;11.70;92.60;;;;;;5082596;28;20845;-69
2021/04/03 12:14:15;;;;;;;8.53;2.33;;;11.60;93.00;;;;;;5079393;28;20191;-69
2021/04/03 12:16:40;;;;;;;2.83;2.30;;;11.50;92.60;;;;;;5080470;28;20615;-70
2021/04/03 12:19:06;;;;;;;2.53;2.23;;;11.50;92.50;;;;;;5080666;28;20203;-69
2021/04/03 12:21:31;;;;;;;3.53;1.53;;;12.00;92.40;;;;;;5080224;28;20173;-70
2021/04/03 12:23:57;;;;;;;2.70;1.40;;;12.50;90.80;;;;;;5081627;28;20219;-70
2021/04/03 12:26:22;;;;;;;9.50;1.87;;;12.80;90.70;;;;;;5079223;28;20276;-70
2021/04/03 12:28:48;;;;;;;3.77;1.83;;;12.90;90.70;;;;;;5081237;28;20171;-69
2021/04/03 12:31:14;;;;;;;2.70;1.80;;;12.60;90.60;;;;;;5079699;28;20183;-70
2021/04/03 12:33:40;;;;;;;3.63;1.80;;;12.30;90.70;;;;;;5080763;28;20196;-70
2021/04/03 12:36:06;;;;;;;3.17;1.80;;;12.00;90.70;;;;;;5080635;28;20181;-69
2021/04/03 12:38:32;;;;;;;3.70;2.30;;;11.90;90.40;;;;;;5079941;28;20449;-70
2021/04/03 12:40:58;;;;;;;3.33;2.13;;;11.80;90.90;;;;;;5081611;28;20542;-69
2021/04/03 12:43:23;;;;;;;2.70;1.90;;;11.50;91.20;;;;;;5078659;28;20537;-69
2021/04/03 12:45:49;;;;;;;3.87;1.93;;;11.30;91.30;;;;;;5080917;28;20197;-69
2021/04/03 12:48:14;;;;;;;2.23;1.50;;;11.30;91.30;;;;;;5079435;28;20175;-69
2021/04/03 12:50:40;;;;;;;2.43;1.90;;;11.20;91.00;;;;;;5081037;28;20625;-69
2021/04/03 12:53:05;;;;;;;2.50;1.70;;;11.20;91.80;;;;;;5080401;28;20206;-69
2021/04/03 12:55:31;;;;;;;4.80;1.70;;;11.50;91.40;;;;;;5079503;28;20181;-69